• Join FlightAware (Why Join?)
  • Login
  • US Flag 
10:41AM EST


 

Airport Tracker/Info


-or-


 

Live Flight TrackerFlight Track Log ✈ FIN666 ✈ 23-Jan-2014 ✈ EKCH / CPH - EFHK / HEL

Flight Track Log - Related Links

Times and Time Zones

All times are in EST time to prevent confusion due to time zone crossing. See the FIN666 flight status page for this flight to view local times or setup timezone preferences in your user account.

Time Position Orientation Groundspeed Altitude Reporting Facility
EST Latitude Longitude Course Direction KTS MPH feet Rate Location/Type
07:26AM 55.8272 13.0881 49° Northeast  Level Estimated
07:27AM 55.8966 13.2332 49° Northeast  Level Estimated
07:28AM 55.9658 13.3788 50° Northeast  Level Estimated
07:29AM 56.0443 13.5449 50° Northeast  Level Estimated
07:30AM 56.1225 13.7116 50° Northeast  Level Estimated
07:31AM 56.2005 13.8791 50° Northeast  Level Estimated
07:32AM 56.2783 14.0472 50° Northeast  Level Estimated
07:33AM 56.3559 14.2160 50° Northeast  Level Estimated
07:34AM 56.4332 14.3855 50° Northeast  Level Estimated
07:35AM 56.5103 14.5557 51° Northeast  Level Estimated
07:36AM 56.5872 14.7266 51° Northeast  Level Estimated
07:37AM 56.6638 14.8981 51° Northeast  Level Estimated
07:38AM 56.7402 15.0704 51° Northeast  Level Estimated
07:39AM 56.8164 15.2434 51° Northeast  Level Estimated
07:40AM 56.8923 15.4171 51° Northeast  Level Estimated
07:41AM 56.9680 15.5914 51° Northeast  Level Estimated
07:42AM 57.0434 15.7665 52° Northeast  Level Estimated
07:43AM 57.1175 15.9397 52° Northeast  Level Estimated
07:44AM 57.1913 16.1136 52° Northeast  Level Estimated
07:45AM 57.2649 16.2881 52° Northeast  Level Estimated
07:46AM 57.3382 16.4634 52° Northeast  Level Estimated
07:47AM 57.4113 16.6393 52° Northeast  Level Estimated
07:48AM 57.4842 16.8160 52° Northeast  Level Estimated
07:49AM 57.5568 16.9934 53° Northeast  Level Estimated
07:50AM 57.6291 17.1714 53° Northeast  Level Estimated
07:51AM 57.7012 17.3502 53° Northeast  Level Estimated
07:52AM 57.7731 17.5297 53° Northeast  Level Estimated
07:53AM 57.8447 17.7099 53° Northeast  Level Estimated
07:54AM 57.9160 17.8908 53° Northeast  Level Estimated
07:55AM 57.9871 18.0725 54° Northeast  Level Estimated
07:56AM 58.0579 18.2548 54° Northeast  Level Estimated
07:57AM 58.1284 18.4379 54° Northeast  Level Estimated
07:58AM 58.1987 18.6217 54° Northeast  Level Estimated
07:59AM 58.2688 18.8063 54° Northeast  Level Estimated
08:00AM 58.3385 18.9916 54° Northeast  Level Estimated
08:01AM 58.4080 19.1775 54° Northeast  Level Estimated
08:02AM 58.4772 19.3643 55° Northeast  Level Estimated
08:03AM 58.5462 19.5518 55° Northeast  Level Estimated
08:04AM 58.6149 19.7400 55° Northeast  Level Estimated
08:05AM 58.6833 19.9289 55° Northeast  Level Estimated
08:06AM 58.7514 20.1186 55° Northeast  Level Estimated
08:07AM 58.8192 20.3090 55° Northeast  Level Estimated
08:08AM 58.8868 20.5002 56° Northeast  Level Estimated
08:09AM 58.9541 20.6921 56° Northeast  Level Estimated
08:10AM 59.0211 20.8848 56° Northeast  Level Estimated
08:11AM 59.0878 21.0782 56° Northeast  Level Estimated
08:12AM 59.1552 21.2754 56° Northeast  Level Estimated
08:13AM 59.2223 21.4732 56° Northeast  Level Estimated
08:14AM 59.2891 21.6719 57° Northeast  Level Estimated
08:15AM 59.3557 21.8714 57° Northeast  Level Estimated
08:16AM 59.4219 22.0716 57° Northeast  Level Estimated
08:17AM 59.4878 22.2726 57° Northeast  Level Estimated
08:18AM 59.5534 22.4745 57° Northeast  Level Estimated
08:19AM 59.6186 22.6770 57° Northeast  Level Estimated
08:20AM 59.6836 22.8804 58° Northeast  Level Estimated
08:21AM 59.7483 23.0846 58° Northeast  Level Estimated
08:22AM 59.8081 23.2751 58° Northeast  Level Estimated
08:23AM 59.8676 23.4663 58° Northeast  Level Estimated
08:24AM 59.9269 23.6581 58° Northeast  Level Estimated
08:25AM 59.9859 23.8507 58° Northeast  Level Estimated
08:26AM 60.0446 24.0439 59° Northeast  Level Estimated
08:27AM 60.1030 24.2379 59° Northeast  Level Estimated
08:28AM 60.1611 24.4325 59° Northeast  Level Estimated
08:29AM 60.2190 24.6278 59° Northeast  Level Estimated
08:30AM 60.2765 24.8238 59° Northeast  Level Estimated
08:31AM 60.3172 24.9633 59° Northeast  Level Estimated
08:32AM 60.3172 24.9633 37° Northeast  Level Estimated
08:33AM 60.3172 24.9633 37° Northeast  Level Estimated
08:34AM 60.3172 24.9633 37° Northeast  Level Estimated
08:35AM 60.3172 24.9633 37° Northeast  Level Estimated
08:36AM 60.3172 24.9633 37° Northeast  Level Estimated
08:37AM 60.3172 24.9633 37° Northeast  Level Estimated
08:38AM 60.3172 24.9633 37° Northeast  Level Estimated
08:39AM 60.3172 24.9633 37° Northeast  Level Estimated
08:40AM 60.3172 24.9633 37° Northeast  Level Estimated
08:41AM 60.3172 24.9633 37° Northeast  Level Estimated
08:42AM 60.3172 24.9633 37° Northeast  Level Estimated
08:43AM 60.3172 24.9633 37° Northeast  Level Estimated
08:44AM 60.3172 24.9633 37° Northeast  Level Estimated
08:45AM 60.3172 24.9633 37° Northeast  Level Estimated
08:46AM 60.3172 24.9633 37° Northeast  Level Estimated
08:47AM 60.3172 24.9633 37° Northeast  Level Estimated
08:48AM 60.3172 24.9633 37° Northeast  Level Estimated